ΕΜΥ, Εθνική Μετεωρολογική Υπηρεσία - Δελτία Καιρού, Προγνώσεις

ΑΕΡΟΝΑΥΤΙΛΙΑ

GREEK AIRPORTS CODES

LGIR 200650Z 29016KT 9999 FEW025 27/18 Q1013 NOSIG=

EUROPEAN AIRPORTS CODES

LFPO 200700Z 22005KT 190V250 9999 FEW063TCU SCT140 21/15Q1011 NOSIG=